This is the latest recevied weather packets stored in our database for station/object KJ5IIV. If no packets are shown the sender has not sent any weather packets the latest 10 day(s).
| Time | Temp. | Humidity | Pressure | Rain* | Wind** | Luminosity | Snow |
|---|---|---|---|---|---|---|---|
| 1778017023 | 29.44° C | 64% | 1004.8 hPa | 0 mm | - | 293 W/m² | - |
| 1778016721 | 29.44° C | 64% | 1004.7 hPa | 0 mm | - | 641 W/m² | - |
| 1778016416 | 30° C | 62% | 1004.8 hPa | 0 mm | - | 605 W/m² | - |
| 1778016114 | 30° C | 63% | 1005 hPa | 0 mm | - | 684 W/m² | - |
| 1778015810 | 30.56° C | 61% | 1005 hPa | 0 mm | - | 360 W/m² | - |
| 1778015508 | 30.56° C | 62% | 1005.2 hPa | 0 mm | - | 698 W/m² | - |
| 1778015204 | 30° C | 65% | 1005.1 hPa | 0 mm | - | 795 W/m² | - |
| 1778014901 | 28.89° C | 66% | 1005.2 hPa | 0 mm | - | 724 W/m² | - |
| 1778014599 | 28.33° C | 67% | 1005.1 hPa | 0 mm | - | 259 W/m² | - |
| 1778014297 | 28.89° C | 66% | 1005.2 hPa | 0 mm | - | 945 W/m² | - |
| 1778013993 | 28.89° C | 65% | 1005.3 hPa | 0 mm | - | 351 W/m² | - |
| 1778013691 | 29.44° C | 64% | 1005.4 hPa | 0 mm | - | 537 W/m² | - |
| 1778013388 | 29.44° C | 64% | 1005.4 hPa | 0 mm | - | 875 W/m² | - |
| 1778013085 | 29.44° C | 64% | 1005.2 hPa | 0 mm | - | 579 W/m² | - |
| 1778012780 | 30° C | 65% | 1005.2 hPa | 0 mm | - | 364 W/m² | - |
| 1778012476 | 28.89° C | 65% | 1005.4 hPa | 0 mm | - | 605 W/m² | - |
| 1778012173 | 29.44° C | 63% | 1005.5 hPa | 0 mm | - | 793 W/m² | - |
| 1778011871 | 29.44° C | 64% | 1005.5 hPa | 0 mm | - | 793 W/m² | - |
| 1778011569 | 28.89° C | 68% | 1005.7 hPa | 0 mm | - | 887 W/m² | - |
| 1778011266 | 28.89° C | 66% | 1005.6 hPa | 0 mm | - | 656 W/m² | - |
| 1778010961 | 28.89° C | 65% | 1005.7 hPa | 0 mm | - | 361 W/m² | - |
| 1778010660 | 28.89° C | 66% | 1005.7 hPa | 0 mm | - | 829 W/m² | - |
| 1778010356 | 28.89° C | 66% | 1005.8 hPa | 0 mm | - | 586 W/m² | - |
| 1778010052 | 28.89° C | 67% | 1005.6 hPa | 0 mm | - | 679 W/m² | - |
| 1778009749 | 28.33° C | 66% | 1005.7 hPa | 0 mm | - | 675 W/m² | - |
* Rain latest hour (hover to see other rain measurements)
** Current wind speed in m/s (hover to see current wind gust speed)